createdAt,value
2023-04-30T00:01:15.002Z,1010.20
2023-04-30T00:03:48.480Z,1010.20
2023-04-30T00:06:21.268Z,1010.20
2023-04-30T00:08:54.313Z,1010.20
2023-04-30T00:11:27.230Z,1010.20
2023-04-30T00:14:00.566Z,1010.21
2023-04-30T00:16:34.081Z,1010.22
2023-04-30T00:19:07.302Z,1010.22
2023-04-30T00:21:40.296Z,1010.24
2023-04-30T00:24:13.250Z,1010.25
2023-04-30T00:26:46.422Z,1010.26
2023-04-30T00:29:19.179Z,1010.26
2023-04-30T00:31:52.141Z,1010.27
2023-04-30T00:34:25.384Z,1010.28
2023-04-30T00:36:58.147Z,1010.30
2023-04-30T00:39:31.184Z,1010.32
2023-04-30T00:42:04.304Z,1010.33
2023-04-30T00:44:37.213Z,1010.34
2023-04-30T00:47:10.300Z,1010.32
2023-04-30T00:49:43.226Z,1010.32
2023-04-30T00:52:16.226Z,1010.31
2023-04-30T00:54:49.346Z,1010.30
2023-04-30T00:57:22.149Z,1010.29
2023-04-30T00:59:55.447Z,1010.27
2023-04-30T01:02:28.300Z,1010.27
2023-04-30T01:05:01.093Z,1010.27
2023-04-30T01:07:34.210Z,1010.26
2023-04-30T01:10:07.130Z,1010.27
2023-04-30T01:12:40.454Z,1010.28
2023-04-30T01:15:13.357Z,1010.30
2023-04-30T01:17:46.458Z,1010.30
2023-04-30T01:20:19.213Z,1010.28
2023-04-30T01:22:52.387Z,1010.28
2023-04-30T01:25:25.126Z,1010.26
2023-04-30T01:27:58.402Z,1010.25
2023-04-30T01:30:37.590Z,1010.25
2023-04-30T01:33:11.133Z,1010.24
2023-04-30T01:35:44.284Z,1010.24
2023-04-30T01:38:17.225Z,1010.23
2023-04-30T01:40:50.241Z,1010.22
2023-04-30T01:43:23.308Z,1010.20
2023-04-30T01:45:56.482Z,1010.19
2023-04-30T01:48:29.239Z,1010.18
2023-04-30T01:51:02.490Z,1010.18
2023-04-30T01:53:35.472Z,1010.19
2023-04-30T01:56:08.123Z,1010.21
2023-04-30T01:58:41.440Z,1010.24
2023-04-30T02:01:14.287Z,1010.25
2023-04-30T02:03:47.540Z,1010.27
2023-04-30T02:06:20.344Z,1010.27
2023-04-30T02:08:53.433Z,1010.27
2023-04-30T02:11:28.202Z,1010.26
2023-04-30T02:14:01.526Z,1010.27
2023-04-30T02:16:34.567Z,1010.27
2023-04-30T02:19:07.508Z,1010.27
2023-04-30T02:21:40.431Z,1010.28
2023-04-30T02:24:13.545Z,1010.29
2023-04-30T02:26:46.538Z,1010.29
2023-04-30T02:29:19.559Z,1010.28
2023-04-30T02:31:52.654Z,1010.29
2023-04-30T02:34:25.318Z,1010.28
2023-04-30T02:36:58.570Z,1010.27
2023-04-30T02:39:31.454Z,1010.27
2023-04-30T02:42:04.202Z,1010.26
2023-04-30T02:44:37.372Z,1010.24
2023-04-30T02:47:10.368Z,1010.23
2023-04-30T02:49:43.501Z,1010.22
2023-04-30T02:52:16.320Z,1010.21
2023-04-30T02:54:49.392Z,1010.19
2023-04-30T02:57:22.330Z,1010.18
2023-04-30T02:59:55.670Z,1010.17
2023-04-30T03:02:28.609Z,1010.19
2023-04-30T03:05:01.485Z,1010.21
2023-04-30T03:07:34.518Z,1010.24
2023-04-30T03:10:07.511Z,1010.25
2023-04-30T03:12:40.569Z,1010.28
2023-04-30T03:15:13.616Z,1010.29
2023-04-30T03:17:52.568Z,1010.31
2023-04-30T03:20:25.371Z,1010.31
2023-04-30T03:22:58.404Z,1010.31
2023-04-30T03:25:31.708Z,1010.29
2023-04-30T03:28:05.272Z,1010.27
2023-04-30T03:30:38.439Z,1010.25
2023-04-30T03:33:11.450Z,1010.25
2023-04-30T03:35:58.617Z,1010.23
2023-04-30T03:38:31.631Z,1010.22
2023-04-30T03:41:04.480Z,1010.21
2023-04-30T03:43:37.454Z,1010.22
2023-04-30T03:46:10.665Z,1010.24
2023-04-30T03:48:43.597Z,1010.25
2023-04-30T03:51:16.452Z,1010.24
2023-04-30T03:53:49.377Z,1010.24
2023-04-30T03:56:22.422Z,1010.25
2023-04-30T03:58:55.453Z,1010.24
2023-04-30T04:01:28.539Z,1010.25
2023-04-30T04:04:01.380Z,1010.23
2023-04-30T04:06:34.406Z,1010.21
2023-04-30T04:09:07.339Z,1010.21
2023-04-30T04:11:40.348Z,1010.21
2023-04-30T04:14:13.489Z,1010.22
2023-04-30T04:16:46.754Z,1010.23
2023-04-30T04:19:19.466Z,1010.23
2023-04-30T04:21:52.601Z,1010.24
2023-04-30T04:24:25.461Z,1010.26
2023-04-30T04:27:04.433Z,1010.28
2023-04-30T04:29:37.479Z,1010.29
2023-04-30T04:32:10.389Z,1010.32
2023-04-30T04:34:43.649Z,1010.35
2023-04-30T04:37:16.538Z,1010.37
2023-04-30T04:39:49.499Z,1010.39
2023-04-30T04:42:22.693Z,1010.41
2023-04-30T04:44:55.411Z,1010.42
2023-04-30T04:47:42.627Z,1010.43
2023-04-30T04:50:15.778Z,1010.44
2023-04-30T04:52:48.524Z,1010.44
2023-04-30T04:55:21.524Z,1010.47
2023-04-30T04:57:54.508Z,1010.48
2023-04-30T05:00:27.885Z,1010.49
2023-04-30T05:03:01.807Z,1010.52
2023-04-30T05:05:34.664Z,1010.53
2023-04-30T05:08:10.295Z,1010.53
2023-04-30T05:10:43.722Z,1010.52
2023-04-30T05:13:16.752Z,1010.52
2023-04-30T05:15:49.564Z,1010.50
2023-04-30T05:18:22.706Z,1010.50
2023-04-30T05:20:55.579Z,1010.50
2023-04-30T05:23:28.552Z,1010.50
2023-04-30T05:26:01.631Z,1010.51
2023-04-30T05:28:34.612Z,1010.51
2023-04-30T05:31:07.431Z,1010.51
2023-04-30T05:33:40.738Z,1010.51
2023-04-30T05:36:13.996Z,1010.53
2023-04-30T05:38:47.730Z,1010.52
2023-04-30T05:41:20.568Z,1010.53
2023-04-30T05:43:53.834Z,1010.55
2023-04-30T05:46:26.690Z,1010.56
2023-04-30T05:48:59.671Z,1010.59
2023-04-30T05:51:32.838Z,1010.60
2023-04-30T05:54:05.486Z,1010.61
2023-04-30T05:56:38.871Z,1010.62
2023-04-30T05:59:11.565Z,1010.63
2023-04-30T06:01:44.536Z,1010.63
2023-04-30T06:04:17.925Z,1010.63
2023-04-30T06:06:50.877Z,1010.64
2023-04-30T06:09:23.893Z,1010.64
2023-04-30T06:11:56.532Z,1010.65
2023-04-30T06:14:29.523Z,1010.64
2023-04-30T06:17:02.777Z,1010.65
2023-04-30T06:19:35.723Z,1010.66
2023-04-30T06:22:08.776Z,1010.66
2023-04-30T06:24:41.866Z,1010.66
2023-04-30T06:27:14.904Z,1010.66
2023-04-30T06:29:47.549Z,1010.66
2023-04-30T06:32:26.870Z,1010.66
2023-04-30T06:34:59.849Z,1010.65
2023-04-30T06:37:33.563Z,1010.66
2023-04-30T06:40:05.838Z,1010.67
2023-04-30T06:42:39.014Z,1010.69
2023-04-30T06:45:12.722Z,1010.69
2023-04-30T06:47:45.934Z,1010.70
2023-04-30T06:50:18.592Z,1010.70
2023-04-30T06:52:51.548Z,1010.71
2023-04-30T06:55:27.478Z,1010.70
2023-04-30T06:58:00.685Z,1010.71
2023-04-30T07:00:33.574Z,1010.72
2023-04-30T07:03:06.676Z,1010.72
2023-04-30T07:05:40.059Z,1010.72
2023-04-30T07:08:12.600Z,1010.71
2023-04-30T07:10:45.696Z,1010.71
2023-04-30T07:13:18.714Z,1010.71
2023-04-30T07:15:51.827Z,1010.71
2023-04-30T07:18:25.473Z,1010.70
2023-04-30T07:20:58.757Z,1010.71
2023-04-30T07:23:31.985Z,1010.71
2023-04-30T07:26:04.593Z,1010.69
2023-04-30T07:28:37.785Z,1010.67
2023-04-30T07:31:10.680Z,1010.67
2023-04-30T07:33:43.784Z,1010.64
2023-04-30T07:36:16.684Z,1010.63
2023-04-30T07:38:49.801Z,1010.62
2023-04-30T07:41:22.801Z,1010.61
2023-04-30T07:43:55.723Z,1010.61
2023-04-30T07:46:28.845Z,1010.58
2023-04-30T07:49:01.811Z,1010.57
2023-04-30T07:51:34.818Z,1010.58
2023-04-30T07:54:07.654Z,1010.58
2023-04-30T07:56:40.692Z,1010.57
2023-04-30T07:59:13.664Z,1010.57
2023-04-30T08:01:46.795Z,1010.57
2023-04-30T08:04:19.714Z,1010.61
2023-04-30T08:06:52.662Z,1010.63
2023-04-30T08:09:25.840Z,1010.63
2023-04-30T08:11:58.871Z,1010.64
2023-04-30T08:14:31.747Z,1010.65
2023-04-30T08:17:05.040Z,1010.63
2023-04-30T08:19:37.827Z,1010.63
2023-04-30T08:22:11.053Z,1010.62
2023-04-30T08:24:44.026Z,1010.61
2023-04-30T08:27:17.192Z,1010.61
2023-04-30T08:29:51.072Z,1010.60
2023-04-30T08:32:24.183Z,1010.58
2023-04-30T08:34:57.154Z,1010.58
2023-04-30T08:37:29.980Z,1010.58
2023-04-30T08:40:03.037Z,1010.56
2023-04-30T08:42:36.092Z,1010.58
2023-04-30T08:45:08.977Z,1010.58
2023-04-30T08:47:42.209Z,1010.58
2023-04-30T08:50:15.055Z,1010.57
2023-04-30T08:52:48.115Z,1010.57
2023-04-30T08:55:22.086Z,1010.57
2023-04-30T08:58:09.156Z,1010.57
2023-04-30T09:00:42.182Z,1010.56
2023-04-30T09:03:15.223Z,1010.54
2023-04-30T09:05:48.075Z,1010.53
2023-04-30T09:08:21.181Z,1010.52
2023-04-30T09:10:54.290Z,1010.52
2023-04-30T09:13:28.047Z,1010.52
2023-04-30T09:16:01.032Z,1010.52
2023-04-30T09:18:34.130Z,1010.51
2023-04-30T09:21:07.117Z,1010.50
2023-04-30T09:23:40.148Z,1010.49
2023-04-30T09:26:13.144Z,1010.49
2023-04-30T09:28:47.106Z,1010.47
2023-04-30T09:31:19.930Z,1010.46
2023-04-30T09:33:54.225Z,1010.46
2023-04-30T09:36:28.193Z,1010.44
2023-04-30T09:39:01.128Z,1010.43
2023-04-30T09:41:33.817Z,1010.42
2023-04-30T09:44:06.800Z,1010.41
2023-04-30T09:46:40.141Z,1010.39
2023-04-30T09:49:13.164Z,1010.38
2023-04-30T09:51:45.942Z,1010.37
2023-04-30T09:54:19.009Z,1010.35
2023-04-30T09:56:52.153Z,1010.33
2023-04-30T09:59:24.821Z,1010.33
2023-04-30T10:01:57.950Z,1010.33
2023-04-30T10:04:30.837Z,1010.32
2023-04-30T10:07:04.124Z,1010.32
2023-04-30T10:09:37.076Z,1010.30
2023-04-30T10:12:09.844Z,1010.28
2023-04-30T10:14:43.341Z,1010.26
2023-04-30T10:17:17.312Z,1010.23
2023-04-30T10:19:50.889Z,1010.21
2023-04-30T10:22:24.001Z,1010.19
2023-04-30T10:24:57.348Z,1010.17
2023-04-30T10:27:29.938Z,1010.14
2023-04-30T10:30:02.868Z,1010.11
2023-04-30T10:32:36.075Z,1010.07
2023-04-30T10:35:09.054Z,1010.04
2023-04-30T10:37:42.031Z,1010.02
2023-04-30T10:40:15.086Z,1010.00
2023-04-30T10:42:48.192Z,1009.97
2023-04-30T10:45:21.310Z,1009.96
2023-04-30T10:47:54.245Z,1009.93
2023-04-30T10:50:27.256Z,1009.90
2023-04-30T10:53:00.258Z,1009.88
2023-04-30T10:55:33.288Z,1009.84
2023-04-30T10:58:06.203Z,1009.81
2023-04-30T11:00:39.339Z,1009.79
2023-04-30T11:03:12.406Z,1009.75
2023-04-30T11:05:44.907Z,1009.74
2023-04-30T11:08:18.109Z,1009.72
2023-04-30T11:10:51.176Z,1009.70
2023-04-30T11:13:23.935Z,1009.69
2023-04-30T11:15:57.488Z,1009.67
2023-04-30T11:18:30.943Z,1009.66
2023-04-30T11:21:03.943Z,1009.63
2023-04-30T11:23:41.735Z,1009.60
2023-04-30T11:26:10.081Z,1009.56
2023-04-30T11:28:43.055Z,1009.55
2023-04-30T11:31:16.227Z,1009.55
2023-04-30T11:33:49.111Z,1009.52
2023-04-30T11:36:22.222Z,1009.52
2023-04-30T11:38:55.293Z,1009.47
2023-04-30T11:41:28.315Z,1009.47
2023-04-30T11:44:01.171Z,1009.47
2023-04-30T11:46:34.366Z,1009.45
2023-04-30T11:49:07.255Z,1009.43
2023-04-30T11:51:40.166Z,1009.40
2023-04-30T11:54:13.184Z,1009.39
2023-04-30T11:56:46.421Z,1009.37
2023-04-30T11:59:19.307Z,1009.36
2023-04-30T12:01:52.166Z,1009.35
2023-04-30T12:04:25.206Z,1009.33
2023-04-30T12:06:58.168Z,1009.30
2023-04-30T12:09:31.259Z,1009.24
2023-04-30T12:12:04.060Z,1009.23
2023-04-30T12:14:37.164Z,1009.22
2023-04-30T12:17:10.045Z,1009.20
2023-04-30T12:19:43.202Z,1009.19
2023-04-30T12:22:16.488Z,1009.15
2023-04-30T12:24:50.288Z,1009.13
2023-04-30T12:27:23.558Z,1009.11
2023-04-30T12:29:57.570Z,1009.09
2023-04-30T12:32:30.379Z,1009.07
2023-04-30T12:35:03.065Z,1009.05
2023-04-30T12:37:36.264Z,1009.03
2023-04-30T12:40:23.149Z,1009.01
2023-04-30T12:42:56.431Z,1008.99
2023-04-30T12:45:29.101Z,1008.97
2023-04-30T12:48:02.260Z,1008.97
2023-04-30T12:50:35.182Z,1008.95
2023-04-30T12:53:08.094Z,1008.95
2023-04-30T12:55:41.054Z,1008.92
2023-04-30T12:58:14.173Z,1008.90
2023-04-30T13:00:47.134Z,1008.86
2023-04-30T13:03:20.360Z,1008.82
2023-04-30T13:05:53.094Z,1008.78
2023-04-30T13:08:26.146Z,1008.74
2023-04-30T13:10:59.432Z,1008.73
2023-04-30T13:13:36.312Z,1008.71
2023-04-30T13:16:09.519Z,1008.70
2023-04-30T13:18:42.533Z,1008.66
2023-04-30T13:21:15.572Z,1008.64
2023-04-30T13:23:53.571Z,1008.61
2023-04-30T13:26:22.501Z,1008.58
2023-04-30T13:28:55.494Z,1008.55
2023-04-30T13:31:32.469Z,1008.52
2023-04-30T13:34:19.405Z,1008.51
2023-04-30T13:36:52.343Z,1008.48
2023-04-30T13:39:25.418Z,1008.46
2023-04-30T13:41:58.507Z,1008.43
2023-04-30T13:44:31.502Z,1008.39
2023-04-30T13:47:04.544Z,1008.36
2023-04-30T13:49:37.533Z,1008.31
2023-04-30T13:52:10.392Z,1008.27
2023-04-30T13:54:43.420Z,1008.25
2023-04-30T13:57:16.505Z,1008.23
2023-04-30T13:59:49.588Z,1008.22
2023-04-30T14:02:22.662Z,1008.21
2023-04-30T14:05:05.041Z,1008.19
2023-04-30T14:07:43.311Z,1008.18
2023-04-30T14:10:16.284Z,1008.17
2023-04-30T14:12:49.573Z,1008.18
2023-04-30T14:15:22.206Z,1008.15
2023-04-30T14:17:55.632Z,1008.12
2023-04-30T14:20:28.220Z,1008.10
2023-04-30T14:23:02.894Z,1008.11
2023-04-30T14:25:35.349Z,1008.10
2023-04-30T14:28:10.292Z,1008.08
2023-04-30T14:30:43.792Z,1008.06
2023-04-30T14:33:17.495Z,1008.05
2023-04-30T14:35:50.373Z,1008.02
2023-04-30T14:38:23.204Z,1007.99
2023-04-30T14:40:57.470Z,1007.97
2023-04-30T14:43:30.234Z,1007.94
2023-04-30T14:46:03.338Z,1007.91
2023-04-30T14:48:36.453Z,1007.88
2023-04-30T14:51:09.542Z,1007.85
2023-04-30T14:53:42.591Z,1007.83
2023-04-30T14:56:15.396Z,1007.82
2023-04-30T14:58:48.490Z,1007.81
2023-04-30T15:01:21.441Z,1007.80
2023-04-30T15:03:54.724Z,1007.78
2023-04-30T15:06:27.622Z,1007.74
2023-04-30T15:09:00.635Z,1007.71
2023-04-30T15:11:33.398Z,1007.69
2023-04-30T15:14:06.541Z,1007.67
2023-04-30T15:16:39.738Z,1007.65
2023-04-30T15:19:12.461Z,1007.63
2023-04-30T15:21:46.979Z,1007.60
2023-04-30T15:24:18.683Z,1007.58
2023-04-30T15:26:51.458Z,1007.56
2023-04-30T15:29:24.320Z,1007.56
2023-04-30T15:31:57.686Z,1007.55
2023-04-30T15:34:30.324Z,1007.55
2023-04-30T15:37:03.303Z,1007.55
2023-04-30T15:39:36.430Z,1007.55
2023-04-30T15:42:23.420Z,1007.55
2023-04-30T15:44:56.360Z,1007.54
2023-04-30T15:47:29.681Z,1007.52
2023-04-30T15:50:02.775Z,1007.50
2023-04-30T15:52:37.062Z,1007.48
2023-04-30T15:55:08.490Z,1007.45
2023-04-30T15:57:41.760Z,1007.43
2023-04-30T16:00:14.708Z,1007.41
2023-04-30T16:02:48.041Z,1007.38
2023-04-30T16:05:21.650Z,1007.36
2023-04-30T16:07:54.515Z,1007.33
2023-04-30T16:10:27.594Z,1007.30
2023-04-30T16:13:00.714Z,1007.28
2023-04-30T16:15:33.657Z,1007.26
2023-04-30T16:18:06.561Z,1007.23
2023-04-30T16:20:39.527Z,1007.21
2023-04-30T16:23:12.550Z,1007.19
2023-04-30T16:25:45.731Z,1007.16
2023-04-30T16:28:18.717Z,1007.14
2023-04-30T16:30:51.582Z,1007.12
2023-04-30T16:33:24.602Z,1007.10
2023-04-30T16:35:57.393Z,1007.08
2023-04-30T16:38:30.426Z,1007.07
2023-04-30T16:41:03.609Z,1007.07
2023-04-30T16:43:36.728Z,1007.05
2023-04-30T16:46:09.707Z,1007.03
2023-04-30T16:48:42.804Z,1006.99
2023-04-30T16:51:15.430Z,1006.96
2023-04-30T16:53:48.578Z,1006.94
2023-04-30T16:56:21.671Z,1006.93
2023-04-30T16:58:54.704Z,1006.91
2023-04-30T17:01:27.781Z,1006.88
2023-04-30T17:04:00.790Z,1006.87
2023-04-30T17:06:33.563Z,1006.84
2023-04-30T17:09:06.484Z,1006.83
2023-04-30T17:11:39.758Z,1006.81
2023-04-30T17:14:12.584Z,1006.77
2023-04-30T17:16:59.348Z,1006.76
2023-04-30T17:19:32.859Z,1006.72
2023-04-30T17:22:05.472Z,1006.71
2023-04-30T17:24:38.824Z,1006.71
2023-04-30T17:27:11.813Z,1006.71
2023-04-30T17:29:44.784Z,1006.71
2023-04-30T17:32:17.757Z,1006.71
2023-04-30T17:34:50.497Z,1006.70
2023-04-30T17:37:23.886Z,1006.71
2023-04-30T17:39:57.063Z,1006.70
2023-04-30T17:42:29.486Z,1006.71
2023-04-30T17:45:02.485Z,1006.69
2023-04-30T17:47:35.708Z,1006.70
2023-04-30T17:50:08.642Z,1006.71
2023-04-30T17:52:41.510Z,1006.74
2023-04-30T17:55:14.638Z,1006.75
2023-04-30T17:57:47.663Z,1006.77
2023-04-30T18:00:20.744Z,1006.78
2023-04-30T18:02:53.715Z,1006.77
2023-04-30T18:05:27.095Z,1006.77
2023-04-30T18:08:00.791Z,1006.77
2023-04-30T18:10:33.734Z,1006.77
2023-04-30T18:13:06.901Z,1006.77
2023-04-30T18:15:39.691Z,1006.78
2023-04-30T18:18:12.701Z,1006.78
2023-04-30T18:20:45.822Z,1006.78
2023-04-30T18:23:18.667Z,1006.78
2023-04-30T18:25:52.720Z,1006.79
2023-04-30T18:28:25.551Z,1006.79
2023-04-30T18:30:58.904Z,1006.81
2023-04-30T18:33:31.614Z,1006.82
2023-04-30T18:36:05.738Z,1006.81
2023-04-30T18:38:37.789Z,1006.81
2023-04-30T18:41:10.596Z,1006.81
2023-04-30T18:43:43.580Z,1006.80
2023-04-30T18:46:16.827Z,1006.81
2023-04-30T18:48:49.763Z,1006.81
2023-04-30T18:51:22.605Z,1006.81
2023-04-30T18:53:55.891Z,1006.82
2023-04-30T18:56:28.603Z,1006.82
2023-04-30T18:59:01.591Z,1006.83
2023-04-30T19:01:35.714Z,1006.84
2023-04-30T19:04:08.615Z,1006.87
2023-04-30T19:06:41.783Z,1006.89
2023-04-30T19:09:14.618Z,1006.91
2023-04-30T19:11:47.787Z,1006.92
2023-04-30T19:14:20.753Z,1006.91
2023-04-30T19:16:57.111Z,1006.90
2023-04-30T19:19:29.710Z,1006.92
2023-04-30T19:22:02.799Z,1006.93
2023-04-30T19:24:35.863Z,1006.93
2023-04-30T19:27:08.818Z,1006.94
2023-04-30T19:29:41.862Z,1006.96
2023-04-30T19:32:14.675Z,1006.97
2023-04-30T19:34:47.663Z,1006.98
2023-04-30T19:37:20.801Z,1007.00
2023-04-30T19:39:55.165Z,1007.02
2023-04-30T19:42:30.848Z,1007.05
2023-04-30T19:45:03.669Z,1007.06
2023-04-30T19:47:37.080Z,1007.09
2023-04-30T19:50:09.691Z,1007.10
2023-04-30T19:52:42.927Z,1007.11
2023-04-30T19:55:16.226Z,1007.11
2023-04-30T19:57:49.879Z,1007.10
2023-04-30T20:00:22.739Z,1007.11
2023-04-30T20:02:55.887Z,1007.09
2023-04-30T20:05:28.822Z,1007.08
2023-04-30T20:08:04.703Z,1007.08
2023-04-30T20:10:38.261Z,1007.08
2023-04-30T20:13:11.986Z,1007.07
2023-04-30T20:15:45.139Z,1007.09
2023-04-30T20:18:17.727Z,1007.10
2023-04-30T20:20:51.858Z,1007.09
2023-04-30T20:23:28.369Z,1007.07
2023-04-30T20:26:02.052Z,1007.07
2023-04-30T20:28:34.908Z,1007.05
2023-04-30T20:31:08.101Z,1007.04
2023-04-30T20:33:41.182Z,1007.04
2023-04-30T20:36:14.140Z,1007.01
2023-04-30T20:39:01.076Z,1007.00
2023-04-30T20:41:34.133Z,1006.99
2023-04-30T20:44:06.875Z,1006.98
2023-04-30T20:46:39.943Z,1006.98
2023-04-30T20:49:12.844Z,1006.96
2023-04-30T20:51:46.200Z,1006.94
2023-04-30T20:54:19.074Z,1006.94
2023-04-30T20:56:51.929Z,1006.93
2023-04-30T20:59:25.062Z,1006.91
2023-04-30T21:01:58.106Z,1006.92
2023-04-30T21:04:31.000Z,1006.92
2023-04-30T21:07:04.072Z,1006.93
2023-04-30T21:09:37.149Z,1006.94
2023-04-30T21:12:10.051Z,1006.95
2023-04-30T21:14:42.827Z,1006.94
2023-04-30T21:17:16.107Z,1006.93
2023-04-30T21:19:49.285Z,1006.95
2023-04-30T21:22:23.076Z,1006.96
2023-04-30T21:24:55.821Z,1006.94
2023-04-30T21:27:28.926Z,1006.92
2023-04-30T21:30:01.934Z,1006.91
2023-04-30T21:32:35.054Z,1006.90
2023-04-30T21:35:07.827Z,1006.87
2023-04-30T21:37:41.062Z,1006.86
2023-04-30T21:40:14.041Z,1006.86
2023-04-30T21:42:47.003Z,1006.85
2023-04-30T21:45:19.991Z,1006.84
2023-04-30T21:47:53.065Z,1006.81
2023-04-30T21:50:26.187Z,1006.81
2023-04-30T21:53:02.793Z,1006.80
2023-04-30T21:55:35.878Z,1006.78
2023-04-30T21:58:08.912Z,1006.77
2023-04-30T22:00:42.085Z,1006.74
2023-04-30T22:03:15.044Z,1006.74
2023-04-30T22:05:48.370Z,1006.73
2023-04-30T22:08:21.861Z,1006.71
2023-04-30T22:10:55.004Z,1006.71
2023-04-30T22:13:27.894Z,1006.70
2023-04-30T22:16:00.899Z,1006.69
2023-04-30T22:18:34.060Z,1006.68
2023-04-30T22:21:06.925Z,1006.66
2023-04-30T22:23:40.070Z,1006.65
2023-04-30T22:26:13.136Z,1006.64
2023-04-30T22:28:46.006Z,1006.62
2023-04-30T22:31:19.273Z,1006.61
2023-04-30T22:33:51.938Z,1006.58
2023-04-30T22:36:25.353Z,1006.57
2023-04-30T22:38:59.101Z,1006.56
2023-04-30T22:41:32.076Z,1006.54
2023-04-30T22:44:04.911Z,1006.52
2023-04-30T22:46:38.121Z,1006.50
2023-04-30T22:49:19.918Z,1006.47
2023-04-30T22:51:44.121Z,1006.45
2023-04-30T22:54:17.159Z,1006.44
2023-04-30T22:56:50.248Z,1006.42
2023-04-30T22:59:23.220Z,1006.42
2023-04-30T23:01:56.190Z,1006.41
2023-04-30T23:04:29.097Z,1006.40
2023-04-30T23:07:02.302Z,1006.41
2023-04-30T23:09:35.482Z,1006.41
2023-04-30T23:12:09.255Z,1006.41
2023-04-30T23:14:42.344Z,1006.41
2023-04-30T23:17:15.536Z,1006.42
2023-04-30T23:19:49.083Z,1006.42
2023-04-30T23:22:22.346Z,1006.42
2023-04-30T23:24:55.264Z,1006.41
2023-04-30T23:27:42.100Z,1006.39
2023-04-30T23:30:15.295Z,1006.37
2023-04-30T23:32:48.042Z,1006.36
2023-04-30T23:35:21.397Z,1006.34
2023-04-30T23:37:54.218Z,1006.33
2023-04-30T23:40:27.306Z,1006.31
2023-04-30T23:43:00.446Z,1006.28
2023-04-30T23:45:33.083Z,1006.27
2023-04-30T23:48:06.344Z,1006.25
2023-04-30T23:50:39.308Z,1006.24
2023-04-30T23:53:12.498Z,1006.21
2023-04-30T23:55:46.379Z,1006.17
2023-04-30T23:58:19.363Z,1006.14
